createdAt,value
2019-03-26T00:00:58.175Z,7.52
2019-03-26T00:01:58.131Z,7.58
2019-03-26T00:02:58.108Z,7.61
2019-03-26T00:04:05.731Z,7.62
2019-03-26T00:04:59.109Z,7.68
2019-03-26T00:05:58.070Z,7.54
2019-03-26T00:06:58.065Z,7.47
2019-03-26T00:07:58.061Z,7.47
2019-03-26T00:08:58.062Z,7.29
2019-03-26T00:09:58.044Z,7.31
2019-03-26T00:10:58.025Z,7.36
2019-03-26T00:11:58.011Z,7.18
2019-03-26T00:12:58.032Z,7.22
2019-03-26T00:13:58.013Z,7.10
2019-03-26T00:14:57.978Z,6.97
2019-03-26T00:15:57.970Z,7.03
2019-03-26T00:16:57.952Z,6.99
2019-03-26T00:17:57.944Z,6.93
2019-03-26T00:18:58.024Z,6.96
2019-03-26T00:19:57.928Z,7.08
2019-03-26T00:20:57.931Z,6.99
2019-03-26T00:21:57.902Z,6.99
2019-03-26T00:22:57.945Z,6.96
2019-03-26T00:23:57.937Z,6.91
2019-03-26T00:24:57.878Z,6.97
2019-03-26T00:25:57.864Z,6.97
2019-03-26T00:26:57.846Z,6.71
2019-03-26T00:27:57.831Z,6.82
2019-03-26T00:28:57.822Z,6.91
2019-03-26T00:29:57.832Z,6.74
2019-03-26T00:30:57.805Z,6.82
2019-03-26T00:31:57.790Z,6.73
2019-03-26T00:32:57.783Z,6.86
2019-03-26T00:33:57.784Z,6.75
2019-03-26T00:34:57.797Z,6.78
2019-03-26T00:35:57.764Z,6.78
2019-03-26T00:36:57.732Z,6.75
2019-03-26T00:37:57.717Z,6.88
2019-03-26T00:38:57.706Z,6.75
2019-03-26T00:39:57.724Z,6.74
2019-03-26T00:40:57.701Z,6.74
2019-03-26T00:41:57.677Z,6.79
2019-03-26T00:42:57.661Z,6.78
2019-03-26T00:43:57.649Z,6.81
2019-03-26T00:44:57.668Z,6.86
2019-03-26T00:45:57.631Z,6.81
2019-03-26T00:46:57.621Z,6.86
2019-03-26T00:47:57.607Z,6.71
2019-03-26T00:48:57.594Z,6.65
2019-03-26T00:49:57.614Z,6.70
2019-03-26T00:50:57.601Z,6.63
2019-03-26T00:51:57.573Z,6.65
2019-03-26T00:52:57.569Z,6.61
2019-03-26T00:53:57.548Z,6.67
2019-03-26T00:54:57.604Z,6.55
2019-03-26T00:55:57.543Z,6.63
2019-03-26T00:56:57.517Z,6.49
2019-03-26T00:57:57.501Z,6.57
2019-03-26T00:58:57.481Z,6.57
2019-03-26T00:59:57.498Z,6.61
2019-03-26T01:00:57.483Z,6.63
2019-03-26T01:01:57.462Z,6.71
2019-03-26T01:02:57.471Z,6.60
2019-03-26T01:03:57.429Z,6.43
2019-03-26T01:04:57.420Z,6.43
2019-03-26T01:05:57.427Z,6.52
2019-03-26T01:06:57.398Z,6.56
2019-03-26T01:07:57.386Z,6.50
2019-03-26T01:08:57.370Z,6.43
2019-03-26T01:09:57.365Z,6.49
2019-03-26T01:10:57.369Z,6.57
2019-03-26T01:11:57.343Z,6.55
2019-03-26T01:12:57.337Z,6.57
2019-03-26T01:13:57.321Z,6.63
2019-03-26T01:14:57.301Z,6.50
2019-03-26T01:15:57.320Z,6.61
2019-03-26T01:16:57.281Z,6.56
2019-03-26T01:17:57.268Z,6.61
2019-03-26T01:18:57.265Z,6.46
2019-03-26T01:19:57.273Z,6.37
2019-03-26T01:20:57.269Z,6.37
2019-03-26T01:21:57.221Z,6.42
2019-03-26T01:22:57.266Z,6.50
2019-03-26T01:23:57.205Z,6.31
2019-03-26T01:24:57.193Z,6.38
2019-03-26T01:25:57.180Z,6.47
2019-03-26T01:26:57.195Z,6.43
2019-03-26T01:27:57.160Z,6.38
2019-03-26T01:28:57.148Z,6.40
2019-03-26T01:29:57.131Z,6.40
2019-03-26T01:30:57.119Z,6.38
2019-03-26T01:31:57.138Z,6.34
2019-03-26T01:32:57.156Z,6.31
2019-03-26T01:33:57.085Z,6.25
2019-03-26T01:34:57.072Z,6.35
2019-03-26T01:35:57.061Z,6.19
2019-03-26T01:36:57.055Z,6.32
2019-03-26T01:37:57.063Z,6.40
2019-03-26T01:38:57.031Z,6.34
2019-03-26T01:39:57.021Z,6.21
2019-03-26T01:40:57.011Z,6.28
2019-03-26T01:41:57.027Z,6.27
2019-03-26T01:42:57.009Z,6.16
2019-03-26T01:43:56.973Z,6.18
2019-03-26T01:44:56.960Z,6.19
2019-03-26T01:45:56.950Z,6.21
2019-03-26T01:46:56.970Z,6.21
2019-03-26T01:47:56.948Z,6.27
2019-03-26T01:48:56.918Z,6.27
2019-03-26T01:49:56.904Z,6.37
2019-03-26T01:50:56.891Z,6.25
2019-03-26T01:51:56.879Z,6.18
2019-03-26T01:52:56.891Z,6.19
2019-03-26T01:53:56.857Z,6.25
2019-03-26T01:54:56.844Z,6.30
2019-03-26T01:55:56.835Z,6.37
2019-03-26T01:56:56.824Z,6.24
2019-03-26T01:57:56.837Z,6.12
2019-03-26T01:58:56.811Z,6.19
2019-03-26T01:59:56.795Z,6.18
2019-03-26T02:00:56.777Z,6.12
2019-03-26T02:01:56.767Z,6.09
2019-03-26T02:02:56.781Z,6.18
2019-03-26T02:03:56.742Z,6.15
2019-03-26T02:05:00.355Z,6.31
2019-03-26T02:05:56.720Z,6.27
2019-03-26T02:06:56.709Z,6.19
2019-03-26T02:07:56.721Z,6.18
2019-03-26T02:08:56.687Z,6.13
2019-03-26T02:09:56.676Z,6.30
2019-03-26T02:10:56.662Z,6.27
2019-03-26T02:11:56.653Z,6.27
2019-03-26T02:12:56.681Z,6.27
2019-03-26T02:13:56.628Z,6.31
2019-03-26T02:14:56.624Z,6.31
2019-03-26T02:15:56.608Z,6.21
2019-03-26T02:16:56.594Z,6.34
2019-03-26T02:17:56.582Z,6.24
2019-03-26T02:18:56.697Z,6.28
2019-03-26T02:19:56.560Z,6.25
2019-03-26T02:20:56.554Z,6.25
2019-03-26T02:21:56.538Z,6.25
2019-03-26T02:22:56.528Z,6.25
2019-03-26T02:23:56.542Z,6.27
2019-03-26T02:24:56.505Z,6.27
2019-03-26T02:25:56.493Z,6.24
2019-03-26T02:26:56.481Z,6.24
2019-03-26T02:27:56.476Z,6.09
2019-03-26T02:28:56.572Z,6.15
2019-03-26T02:29:56.455Z,6.11
2019-03-26T02:30:56.436Z,6.32
2019-03-26T02:31:56.423Z,6.18
2019-03-26T02:32:56.420Z,6.21
2019-03-26T02:33:56.427Z,6.19
2019-03-26T02:34:56.388Z,6.05
2019-03-26T02:35:56.388Z,6.18
2019-03-26T02:36:56.367Z,6.16
2019-03-26T02:37:56.354Z,6.12
2019-03-26T02:38:56.373Z,6.13
2019-03-26T02:39:56.331Z,6.19
2019-03-26T02:40:56.321Z,6.15
2019-03-26T02:41:56.312Z,6.09
2019-03-26T02:42:56.299Z,6.02
2019-03-26T02:43:56.290Z,6.19
2019-03-26T02:44:56.302Z,6.09
2019-03-26T02:45:56.277Z,6.05
2019-03-26T02:46:56.257Z,6.11
2019-03-26T02:47:56.243Z,6.12
2019-03-26T02:48:56.231Z,6.16
2019-03-26T02:49:56.255Z,6.18
2019-03-26T02:50:56.214Z,6.21
2019-03-26T02:51:56.197Z,6.12
2019-03-26T02:52:56.186Z,6.13
2019-03-26T02:53:56.173Z,6.11
2019-03-26T02:54:56.186Z,6.15
2019-03-26T02:55:56.152Z,6.11
2019-03-26T02:56:56.139Z,6.13
2019-03-26T02:57:56.132Z,6.16
2019-03-26T02:58:56.125Z,6.16
2019-03-26T02:59:56.131Z,6.18
2019-03-26T03:00:56.096Z,6.21
2019-03-26T03:01:56.090Z,6.27
2019-03-26T03:02:56.072Z,6.09
2019-03-26T03:03:56.063Z,6.11
2019-03-26T03:04:56.083Z,6.31
2019-03-26T03:05:56.045Z,6.05
2019-03-26T03:06:56.032Z,6.37
2019-03-26T03:07:56.032Z,6.32
2019-03-26T03:08:56.003Z,6.21
2019-03-26T03:09:56.019Z,6.24
2019-03-26T03:10:56.006Z,6.28
2019-03-26T03:11:55.968Z,6.28
2019-03-26T03:12:55.964Z,6.21
2019-03-26T03:13:55.945Z,6.19
2019-03-26T03:14:55.937Z,6.19
2019-03-26T03:15:55.965Z,6.19
2019-03-26T03:16:55.933Z,6.34
2019-03-26T03:17:55.901Z,6.21
2019-03-26T03:18:55.890Z,6.27
2019-03-26T03:19:55.982Z,6.30
2019-03-26T03:20:55.889Z,6.28
2019-03-26T03:21:55.858Z,6.18
2019-03-26T03:22:55.851Z,6.37
2019-03-26T03:23:55.842Z,6.28
2019-03-26T03:24:55.823Z,6.16
2019-03-26T03:25:55.874Z,6.34
2019-03-26T03:26:55.809Z,6.16
2019-03-26T03:27:55.794Z,6.16
2019-03-26T03:28:55.774Z,6.31
2019-03-26T03:29:55.770Z,6.24
2019-03-26T03:30:55.791Z,6.24
2019-03-26T03:31:55.766Z,6.28
2019-03-26T03:32:55.738Z,6.19
2019-03-26T03:33:55.729Z,6.19
2019-03-26T03:34:55.714Z,6.06
2019-03-26T03:35:55.728Z,6.16
2019-03-26T03:36:55.689Z,6.16
2019-03-26T03:37:55.673Z,6.16
2019-03-26T03:38:55.660Z,6.06
2019-03-26T03:39:55.650Z,6.16
2019-03-26T03:40:55.663Z,6.18
2019-03-26T03:41:55.627Z,6.27
2019-03-26T03:42:55.620Z,6.15
2019-03-26T03:43:55.605Z,6.18
2019-03-26T03:44:55.597Z,6.18
2019-03-26T03:45:55.607Z,6.13
2019-03-26T03:46:55.574Z,6.13
2019-03-26T03:47:55.563Z,6.21
2019-03-26T03:48:55.548Z,6.15
2019-03-26T03:49:55.536Z,6.06
2019-03-26T03:50:55.548Z,6.09
2019-03-26T03:51:55.539Z,6.15
2019-03-26T03:52:55.514Z,6.08
2019-03-26T03:53:55.494Z,6.16
2019-03-26T03:54:55.482Z,6.09
2019-03-26T03:55:55.470Z,6.16
2019-03-26T03:56:55.492Z,6.19
2019-03-26T03:57:55.449Z,6.11
2019-03-26T03:58:55.469Z,6.24
2019-03-26T03:59:55.433Z,6.08
2019-03-26T04:00:55.417Z,6.21
2019-03-26T04:01:55.437Z,6.27
2019-03-26T04:02:55.396Z,6.02
2019-03-26T04:03:55.385Z,6.09
2019-03-26T04:04:55.371Z,6.09
2019-03-26T04:06:08.156Z,6.15
2019-03-26T04:06:56.370Z,6.19
2019-03-26T04:07:55.344Z,6.28
2019-03-26T04:08:55.333Z,6.09
2019-03-26T04:09:55.319Z,6.19
2019-03-26T04:10:55.307Z,6.34
2019-03-26T04:11:55.317Z,6.19
2019-03-26T04:12:55.276Z,6.27
2019-03-26T04:13:55.265Z,6.19
2019-03-26T04:14:55.254Z,6.28
2019-03-26T04:15:55.242Z,6.24
2019-03-26T04:16:55.234Z,6.19
2019-03-26T04:17:55.246Z,6.34
2019-03-26T04:18:55.209Z,6.15
2019-03-26T04:19:55.211Z,6.18
2019-03-26T04:20:55.185Z,6.25
2019-03-26T04:21:55.174Z,6.19
2019-03-26T04:22:55.190Z,6.25
2019-03-26T04:23:55.150Z,6.24
2019-03-26T04:24:55.140Z,6.19
2019-03-26T04:25:55.127Z,6.34
2019-03-26T04:26:55.124Z,6.24
2019-03-26T04:27:55.138Z,6.30
2019-03-26T04:28:55.093Z,6.35
2019-03-26T04:29:55.086Z,6.32
2019-03-26T04:30:55.070Z,6.28
2019-03-26T04:31:55.062Z,6.37
2019-03-26T04:32:55.082Z,6.24
2019-03-26T04:33:55.035Z,6.31
2019-03-26T04:34:55.024Z,6.31
2019-03-26T04:35:55.021Z,6.30
2019-03-26T04:36:55.018Z,6.35
2019-03-26T04:37:55.030Z,6.25
2019-03-26T04:38:54.980Z,6.15
2019-03-26T04:39:54.972Z,6.19
2019-03-26T04:40:54.955Z,6.24
2019-03-26T04:41:54.944Z,6.16
2019-03-26T04:42:54.933Z,6.27
2019-03-26T04:43:54.951Z,6.15
2019-03-26T04:44:54.915Z,6.16
2019-03-26T04:45:54.906Z,6.18
2019-03-26T04:46:54.888Z,6.24
2019-03-26T04:47:54.876Z,6.19
2019-03-26T04:48:54.896Z,6.13
2019-03-26T04:49:54.852Z,6.24
2019-03-26T04:50:54.847Z,6.16
2019-03-26T04:51:54.830Z,6.24
2019-03-26T04:52:54.820Z,6.13
2019-03-26T04:53:54.837Z,6.21
2019-03-26T04:54:54.795Z,6.21
2019-03-26T04:55:54.790Z,6.09
2019-03-26T04:56:54.781Z,6.08
2019-03-26T04:57:54.761Z,6.15
2019-03-26T04:58:54.782Z,6.15
2019-03-26T04:59:54.739Z,6.24
2019-03-26T05:00:54.728Z,6.25
2019-03-26T05:01:54.725Z,6.21
2019-03-26T05:02:54.711Z,6.24
2019-03-26T05:03:54.729Z,6.09
2019-03-26T05:04:54.689Z,6.21
2019-03-26T05:05:54.674Z,6.21
2019-03-26T05:06:54.659Z,6.19
2019-03-26T05:07:54.658Z,6.25
2019-03-26T05:08:54.638Z,6.19
2019-03-26T05:09:54.658Z,6.21
2019-03-26T05:10:54.614Z,6.27
2019-03-26T05:11:54.610Z,6.27
2019-03-26T05:12:54.597Z,6.13
2019-03-26T05:13:54.585Z,6.31
2019-03-26T05:14:54.595Z,6.18
2019-03-26T05:15:54.560Z,6.24
2019-03-26T05:16:54.548Z,6.05
2019-03-26T05:17:56.687Z,6.21
2019-03-26T05:18:54.525Z,6.16
2019-03-26T05:19:54.541Z,6.05
2019-03-26T05:20:54.504Z,6.05
2019-03-26T05:21:54.499Z,6.28
2019-03-26T05:22:54.482Z,6.16
2019-03-26T05:23:54.474Z,6.19
2019-03-26T05:24:54.464Z,6.19
2019-03-26T05:25:54.469Z,6.30
2019-03-26T05:26:54.444Z,6.37
2019-03-26T05:27:54.431Z,6.24
2019-03-26T05:28:54.409Z,6.18
2019-03-26T05:29:54.438Z,6.19
2019-03-26T05:30:54.387Z,6.16
2019-03-26T05:31:54.377Z,6.19
2019-03-26T05:32:54.364Z,6.25
2019-03-26T05:33:54.362Z,6.27
2019-03-26T05:34:54.379Z,6.30
2019-03-26T05:35:54.340Z,6.21
2019-03-26T05:36:54.325Z,6.27
2019-03-26T05:37:54.307Z,6.32
2019-03-26T05:38:54.297Z,6.34
2019-03-26T05:39:54.322Z,6.30
2019-03-26T05:40:54.304Z,6.28
2019-03-26T05:41:54.279Z,6.31
2019-03-26T05:42:54.251Z,6.27
2019-03-26T05:43:54.251Z,6.24
2019-03-26T05:44:54.255Z,6.30
2019-03-26T05:45:54.326Z,6.34
2019-03-26T05:46:54.213Z,6.35
2019-03-26T05:47:54.192Z,6.38
2019-03-26T05:48:54.181Z,6.34
2019-03-26T05:49:54.190Z,6.19
2019-03-26T05:50:54.181Z,6.37
2019-03-26T05:51:54.148Z,6.30
2019-03-26T05:52:54.136Z,6.35
2019-03-26T05:53:54.137Z,6.35
2019-03-26T05:54:54.125Z,6.32
2019-03-26T05:55:54.133Z,6.35
2019-03-26T05:56:54.090Z,6.38
2019-03-26T05:57:54.080Z,6.37
2019-03-26T05:58:54.084Z,6.37
2019-03-26T05:59:54.066Z,6.42
2019-03-26T06:00:54.073Z,6.38
2019-03-26T06:01:54.042Z,6.34
2019-03-26T06:02:54.023Z,6.35
2019-03-26T06:03:54.011Z,6.45
2019-03-26T06:04:54.001Z,6.34
2019-03-26T06:05:54.022Z,6.50
2019-03-26T06:07:04.332Z,6.42
2019-03-26T06:07:54.976Z,6.37
2019-03-26T06:08:53.954Z,6.47
2019-03-26T06:09:53.947Z,6.46
2019-03-26T06:10:53.963Z,6.38
2019-03-26T06:11:53.921Z,6.43
2019-03-26T06:12:53.915Z,6.43
2019-03-26T06:13:53.898Z,6.43
2019-03-26T06:14:53.895Z,6.52
2019-03-26T06:15:53.874Z,6.49
2019-03-26T06:16:53.894Z,6.46
2019-03-26T06:17:53.854Z,6.37
2019-03-26T06:18:53.859Z,6.42
2019-03-26T06:19:53.831Z,6.45
2019-03-26T06:20:53.817Z,6.43
2019-03-26T06:21:53.840Z,6.35
2019-03-26T06:22:53.797Z,6.45
2019-03-26T06:23:54.013Z,6.47
2019-03-26T06:24:53.788Z,6.52
2019-03-26T06:25:53.763Z,6.38
2019-03-26T06:26:53.783Z,6.47
2019-03-26T06:27:53.737Z,6.45
2019-03-26T06:28:53.729Z,6.42
2019-03-26T06:29:53.715Z,6.50
2019-03-26T06:30:53.702Z,6.42
2019-03-26T06:31:53.696Z,6.40
2019-03-26T06:32:53.709Z,6.57
2019-03-26T06:33:53.673Z,6.52
2019-03-26T06:34:53.660Z,6.45
2019-03-26T06:35:53.648Z,6.56
2019-03-26T06:36:53.679Z,6.61
2019-03-26T06:37:53.653Z,6.57
2019-03-26T06:38:53.623Z,6.47
2019-03-26T06:39:53.599Z,6.61
2019-03-26T06:40:53.591Z,6.49
2019-03-26T06:41:53.577Z,6.55
2019-03-26T06:42:53.593Z,6.49
2019-03-26T06:43:53.554Z,6.57
2019-03-26T06:44:53.552Z,6.64
2019-03-26T06:45:53.534Z,6.56
2019-03-26T06:46:53.519Z,6.50
2019-03-26T06:47:53.544Z,6.64
2019-03-26T06:48:53.507Z,6.53
2019-03-26T06:49:53.487Z,6.61
2019-03-26T06:50:53.476Z,6.61
2019-03-26T06:51:53.463Z,6.63
2019-03-26T06:52:53.509Z,6.55
2019-03-26T06:53:53.468Z,6.47
2019-03-26T06:54:53.430Z,6.56
2019-03-26T06:55:53.418Z,6.56
2019-03-26T06:56:53.454Z,6.61
2019-03-26T06:57:53.421Z,6.56
2019-03-26T06:58:53.384Z,6.50
2019-03-26T06:59:53.371Z,6.64
2019-03-26T07:00:53.375Z,6.49
2019-03-26T07:01:53.354Z,6.56
2019-03-26T07:02:53.365Z,6.46
2019-03-26T07:03:53.356Z,6.55
2019-03-26T07:04:53.319Z,6.42
2019-03-26T07:05:53.308Z,6.52
2019-03-26T07:06:53.298Z,6.49
2019-03-26T07:07:53.283Z,6.43
2019-03-26T07:08:53.309Z,6.50
2019-03-26T07:09:53.264Z,6.49
2019-03-26T07:10:53.258Z,6.57
2019-03-26T07:11:53.236Z,6.56
2019-03-26T07:12:53.232Z,6.65
2019-03-26T07:13:53.237Z,6.45
2019-03-26T07:14:53.202Z,6.60
2019-03-26T07:15:53.251Z,6.60
2019-03-26T07:16:53.180Z,6.55
2019-03-26T07:17:53.234Z,6.50
2019-03-26T07:18:53.216Z,6.65
2019-03-26T07:19:53.177Z,6.70
2019-03-26T07:20:53.132Z,6.71
2019-03-26T07:21:53.126Z,6.61
2019-03-26T07:22:53.142Z,6.67
2019-03-26T07:23:53.145Z,6.70
2019-03-26T07:24:53.102Z,6.68
2019-03-26T07:25:53.080Z,6.68
2019-03-26T07:26:53.065Z,6.63
2019-03-26T07:27:53.062Z,6.68
2019-03-26T07:28:53.074Z,6.67
2019-03-26T07:29:53.032Z,6.74
2019-03-26T07:30:53.020Z,6.71
2019-03-26T07:31:53.012Z,6.82
2019-03-26T07:32:53.000Z,6.63
2019-03-26T07:33:53.030Z,6.81
2019-03-26T07:34:53.048Z,6.70
2019-03-26T07:35:52.962Z,6.75
2019-03-26T07:36:52.953Z,6.73
2019-03-26T07:37:52.948Z,6.71
2019-03-26T07:38:52.928Z,6.78
2019-03-26T07:39:52.946Z,6.82
2019-03-26T07:40:52.920Z,6.96
2019-03-26T07:41:52.897Z,6.83
2019-03-26T07:42:52.887Z,6.81
2019-03-26T07:43:52.871Z,6.79
2019-03-26T07:44:53.251Z,6.89
2019-03-26T07:45:52.864Z,6.74
2019-03-26T07:46:52.850Z,6.91
2019-03-26T07:47:52.837Z,6.89
2019-03-26T07:48:52.817Z,6.79
2019-03-26T07:49:52.935Z,6.92
2019-03-26T07:50:52.802Z,7.03
2019-03-26T07:51:52.785Z,7.06
2019-03-26T07:52:52.770Z,7.06
2019-03-26T07:53:52.761Z,6.99
2019-03-26T07:54:52.787Z,7.04
2019-03-26T07:55:52.761Z,7.04
2019-03-26T07:56:52.726Z,6.92
2019-03-26T07:57:52.715Z,7.04
2019-03-26T07:58:52.703Z,7.16
2019-03-26T07:59:52.699Z,7.08
2019-03-26T08:00:52.715Z,7.11
2019-03-26T08:01:52.675Z,7.15
2019-03-26T08:02:52.662Z,7.16
2019-03-26T08:03:52.646Z,7.13
2019-03-26T08:04:52.633Z,7.16
2019-03-26T08:05:52.656Z,7.29
2019-03-26T08:06:52.619Z,7.26
2019-03-26T08:07:58.311Z,7.33
2019-03-26T08:08:53.587Z,7.24
2019-03-26T08:09:52.581Z,7.39
2019-03-26T08:10:52.593Z,7.36
2019-03-26T08:11:52.552Z,7.33
2019-03-26T08:12:52.558Z,7.37
2019-03-26T08:13:52.541Z,7.42
2019-03-26T08:14:52.556Z,7.34
2019-03-26T08:15:52.548Z,7.28
2019-03-26T08:16:52.530Z,7.57
2019-03-26T08:17:52.498Z,7.28
2019-03-26T08:18:52.480Z,7.40
2019-03-26T08:19:52.464Z,7.39
2019-03-26T08:20:52.484Z,7.37
2019-03-26T08:21:52.441Z,7.34
2019-03-26T08:22:52.433Z,7.43
2019-03-26T08:23:52.418Z,7.36
2019-03-26T08:24:52.412Z,7.33
2019-03-26T08:25:52.399Z,7.39
2019-03-26T08:26:52.428Z,7.29
2019-03-26T08:27:52.414Z,7.49
2019-03-26T08:28:52.368Z,7.37
2019-03-26T08:29:52.355Z,7.52
2019-03-26T08:30:52.354Z,7.61
2019-03-26T08:31:52.353Z,7.57
2019-03-26T08:32:52.330Z,7.61
2019-03-26T11:39:32.601Z,8.42
2019-03-26T11:40:26.119Z,8.57
2019-03-26T11:41:25.105Z,8.57
2019-03-26T11:42:25.097Z,8.56
2019-03-26T11:43:25.150Z,8.60
2019-03-26T11:44:25.073Z,8.50
2019-03-26T11:45:25.070Z,8.60
2019-03-26T11:46:25.047Z,8.63
2019-03-26T11:47:25.040Z,8.63
2019-03-26T11:48:25.071Z,8.60
2019-03-26T11:49:25.018Z,8.47
2019-03-26T11:50:25.004Z,8.56
2019-03-26T11:51:25.005Z,8.35
2019-03-26T11:52:24.991Z,8.26
2019-03-26T11:53:25.007Z,8.13
2019-03-26T11:54:24.973Z,8.12
2019-03-26T11:55:25.054Z,8.05
2019-03-26T11:56:24.936Z,8.02
2019-03-26T11:57:24.937Z,7.92
2019-03-26T11:58:30.407Z,7.95
2019-03-26T11:59:25.937Z,7.86
2019-03-26T12:00:24.895Z,7.69
2019-03-26T12:01:24.896Z,7.68
2019-03-26T12:02:24.917Z,7.74
2019-03-26T12:03:24.874Z,7.74
2019-03-26T12:04:24.877Z,7.69
2019-03-26T12:05:24.845Z,7.62
2019-03-26T12:06:24.826Z,7.55
2019-03-26T12:07:24.818Z,7.68
2019-03-26T12:08:24.806Z,7.74
2019-03-26T12:09:24.822Z,7.66
2019-03-26T12:10:24.784Z,7.73
2019-03-26T12:11:24.781Z,7.83
2019-03-26T12:12:24.759Z,7.88
2019-03-26T12:13:24.763Z,7.91
2019-03-26T12:14:24.770Z,7.86
2019-03-26T12:15:24.734Z,8.02
2019-03-26T12:16:24.724Z,7.98
2019-03-26T12:17:24.719Z,7.99
2019-03-26T12:18:24.700Z,8.09
2019-03-26T12:19:24.719Z,7.96
2019-03-26T12:20:24.673Z,7.98
2019-03-26T12:21:24.675Z,7.96
2019-03-26T12:22:24.655Z,8.12
2019-03-26T12:23:24.660Z,8.06
2019-03-26T12:24:24.636Z,8.12
2019-03-26T12:25:24.639Z,8.14
2019-03-26T12:26:24.607Z,8.23
2019-03-26T12:27:24.598Z,8.23
2019-03-26T12:28:24.587Z,8.31
2019-03-26T12:29:24.580Z,8.39
2019-03-26T12:30:24.590Z,8.29
2019-03-26T12:31:24.554Z,8.46
2019-03-26T12:32:24.963Z,8.46
2019-03-26T12:33:24.532Z,8.46
2019-03-26T12:34:24.523Z,8.50
2019-03-26T12:35:24.540Z,8.59
2019-03-26T12:36:24.495Z,8.37
2019-03-26T12:37:24.485Z,8.38
2019-03-26T12:38:24.501Z,8.44
2019-03-26T12:39:24.464Z,8.29
2019-03-26T12:40:24.487Z,8.24
2019-03-26T12:41:24.466Z,8.41
2019-03-26T12:42:24.433Z,8.34
2019-03-26T12:43:24.437Z,8.37
2019-03-26T12:44:24.412Z,8.41
2019-03-26T12:45:24.421Z,8.38
2019-03-26T12:46:24.420Z,8.38
2019-03-26T12:47:24.378Z,8.32
2019-03-26T12:48:24.373Z,8.46
2019-03-26T12:49:24.353Z,8.39
2019-03-26T12:50:24.345Z,8.49
2019-03-26T12:51:24.353Z,8.46
2019-03-26T12:52:24.330Z,8.38
2019-03-26T12:53:24.314Z,8.37
2019-03-26T12:54:24.296Z,8.46
2019-03-26T12:55:24.284Z,8.41
2019-03-26T12:56:24.303Z,8.35
2019-03-26T12:57:24.361Z,8.50
2019-03-26T12:58:31.637Z,8.53
2019-03-26T12:59:26.670Z,8.49
2019-03-26T13:00:24.232Z,8.53
2019-03-26T13:01:24.254Z,8.39
2019-03-26T13:02:24.214Z,8.56
2019-03-26T13:03:24.219Z,8.56
2019-03-26T13:04:24.188Z,8.60
2019-03-26T13:05:24.177Z,8.53
2019-03-26T13:06:24.193Z,8.67
2019-03-26T13:07:24.209Z,8.60
2019-03-26T13:08:24.145Z,8.63
2019-03-26T13:09:24.194Z,8.62
2019-03-26T13:10:24.127Z,8.57
2019-03-26T13:11:24.149Z,8.62
2019-03-26T13:12:24.101Z,8.70
2019-03-26T13:13:24.092Z,8.56
2019-03-26T13:14:24.080Z,8.57
2019-03-26T13:15:24.068Z,8.53
2019-03-26T13:16:24.060Z,8.56
2019-03-26T13:17:24.165Z,8.50
2019-03-26T13:18:24.043Z,8.52
2019-03-26T13:19:24.035Z,8.50
2019-03-26T13:20:24.023Z,8.47
2019-03-26T13:21:23.997Z,8.46
2019-03-26T13:22:24.017Z,8.50
2019-03-26T13:23:23.987Z,8.71
2019-03-26T13:24:23.969Z,8.60
2019-03-26T13:25:23.959Z,8.63
2019-03-26T13:26:23.944Z,8.62
2019-03-26T13:27:23.969Z,8.62
2019-03-26T13:28:23.941Z,8.50
2019-03-26T13:29:23.918Z,8.55
2019-03-26T13:30:23.901Z,8.53
2019-03-26T13:31:23.890Z,8.62
2019-03-26T13:32:23.923Z,8.59
2019-03-26T13:33:23.867Z,8.62
2019-03-26T13:34:23.857Z,8.59
2019-03-26T13:35:23.862Z,8.70
2019-03-26T13:36:23.832Z,8.67
2019-03-26T13:37:23.852Z,8.75
2019-03-26T13:38:23.809Z,8.65
2019-03-26T13:39:23.802Z,8.55
2019-03-26T13:40:27.662Z,8.52
2019-03-26T13:41:23.795Z,8.52
2019-03-26T13:42:23.807Z,8.56
2019-03-26T13:43:23.788Z,8.37
2019-03-26T13:44:23.744Z,8.37
2019-03-26T13:45:23.736Z,8.32
2019-03-26T13:46:23.723Z,8.23
2019-03-26T13:47:23.753Z,8.13
2019-03-26T13:48:23.744Z,8.13
2019-03-26T13:49:23.687Z,8.09
2019-03-26T13:50:23.684Z,8.14
2019-03-26T13:51:23.671Z,8.12
2019-03-26T13:52:23.659Z,8.01
2019-03-26T13:53:23.648Z,8.10
2019-03-26T13:54:23.660Z,8.13
2019-03-26T13:55:23.628Z,8.06
2019-03-26T13:56:23.621Z,8.13
2019-03-26T13:57:23.601Z,8.04
2019-03-26T13:58:23.626Z,8.06
2019-03-26T13:59:23.590Z,8.10
2019-03-26T14:00:23.572Z,8.09
2019-03-26T14:01:23.556Z,8.16
2019-03-26T14:02:23.548Z,8.06
2019-03-26T14:03:23.710Z,8.04
2019-03-26T14:04:23.530Z,8.12
2019-03-26T14:05:23.536Z,8.10
2019-03-26T14:06:23.529Z,8.12
2019-03-26T14:07:23.502Z,8.23
2019-03-26T14:08:23.506Z,8.10
2019-03-26T14:09:23.519Z,8.09
2019-03-26T14:10:23.465Z,8.09
2019-03-26T14:11:23.453Z,8.13
2019-03-26T14:12:23.436Z,8.10
2019-03-26T14:13:23.462Z,8.12
2019-03-26T14:14:23.437Z,8.26
2019-03-26T14:15:23.415Z,8.21
2019-03-26T14:16:23.392Z,8.21
2019-03-26T14:17:23.396Z,8.28
2019-03-26T14:18:23.381Z,8.34
2019-03-26T14:19:23.389Z,8.28
2019-03-26T14:20:23.348Z,8.23
2019-03-26T14:21:23.342Z,8.32
2019-03-26T14:22:23.332Z,8.13
2019-03-26T14:23:23.315Z,8.32
2019-03-26T14:24:23.330Z,8.26
2019-03-26T14:25:23.294Z,8.29
2019-03-26T14:26:23.285Z,8.32
2019-03-26T14:27:23.283Z,8.16
2019-03-26T14:28:23.262Z,8.32
2019-03-26T14:29:24.858Z,8.24
2019-03-26T14:30:23.244Z,8.17
2019-03-26T14:31:23.229Z,8.13
2019-03-26T14:32:23.220Z,8.19
2019-03-26T14:33:23.215Z,8.16
2019-03-26T14:34:23.220Z,8.20
2019-03-26T14:35:23.207Z,8.21
2019-03-26T14:36:23.175Z,8.12
2019-03-26T14:37:23.171Z,8.28
2019-03-26T14:38:23.154Z,8.21
2019-03-26T14:39:23.163Z,8.26
2019-03-26T14:40:23.161Z,8.28
2019-03-26T14:41:23.202Z,8.26
2019-03-26T14:42:23.110Z,8.39
2019-03-26T14:43:23.106Z,8.26
2019-03-26T14:44:23.097Z,8.21
2019-03-26T14:45:23.103Z,8.34
2019-03-26T14:46:23.080Z,8.35
2019-03-26T14:47:23.049Z,8.32
2019-03-26T14:48:23.039Z,8.38
2019-03-26T14:49:23.055Z,8.39
2019-03-26T14:50:23.018Z,8.44
2019-03-26T14:51:23.382Z,8.41
2019-03-26T14:52:22.998Z,8.44
2019-03-26T14:53:22.984Z,8.47
2019-03-26T14:54:22.982Z,8.41
2019-03-26T14:55:22.993Z,8.38
2019-03-26T14:56:22.959Z,8.50
2019-03-26T14:57:22.942Z,8.52
2019-03-26T14:58:22.938Z,8.50
2019-03-26T14:59:22.922Z,8.39
2019-03-26T15:00:22.955Z,8.41
2019-03-26T15:01:22.898Z,8.53
2019-03-26T15:02:22.885Z,8.53
2019-03-26T15:03:22.880Z,8.55
2019-03-26T15:04:22.867Z,8.42
2019-03-26T15:05:22.873Z,8.47
2019-03-26T15:06:22.856Z,8.44
2019-03-26T15:07:22.832Z,8.49
2019-03-26T15:08:22.817Z,8.59
2019-03-26T15:09:22.812Z,8.59
2019-03-26T15:10:23.515Z,8.52
2019-03-26T15:11:22.792Z,8.59
2019-03-26T15:12:22.777Z,8.68
2019-03-26T15:13:22.768Z,8.68
2019-03-26T15:14:22.751Z,8.63
2019-03-26T15:15:22.751Z,8.67
2019-03-26T15:16:22.796Z,8.57
2019-03-26T15:17:22.733Z,8.56
2019-03-26T15:18:22.707Z,8.60
2019-03-26T15:19:22.696Z,8.74
2019-03-26T15:20:22.687Z,8.75
2019-03-26T15:21:22.706Z,8.70
2019-03-26T15:22:22.679Z,8.78
2019-03-26T15:23:22.650Z,8.60
2019-03-26T15:24:22.641Z,8.60
2019-03-26T15:25:22.633Z,8.72
2019-03-26T15:26:22.650Z,8.74
2019-03-26T15:27:22.605Z,8.78
2019-03-26T15:28:22.599Z,8.72
2019-03-26T15:29:22.594Z,8.72
2019-03-26T15:30:22.590Z,8.71
2019-03-26T15:31:22.588Z,8.63
2019-03-26T15:32:22.555Z,8.77
2019-03-26T15:33:22.544Z,8.71
2019-03-26T15:34:35.414Z,8.67
2019-03-26T15:35:23.530Z,8.63
2019-03-26T15:36:22.557Z,8.63
2019-03-26T15:37:22.523Z,8.68
2019-03-26T15:38:22.488Z,8.83
2019-03-26T15:39:22.475Z,8.78
2019-03-26T15:40:22.469Z,8.62
2019-03-26T15:41:22.478Z,8.72
2019-03-26T15:42:22.441Z,8.75
2019-03-26T15:43:22.431Z,8.65
2019-03-26T15:44:22.429Z,8.63
2019-03-26T15:45:22.407Z,8.59
2019-03-26T15:46:22.424Z,8.65
2019-03-26T15:47:22.427Z,8.71
2019-03-26T15:48:22.394Z,8.75
2019-03-26T15:49:22.373Z,8.78
2019-03-26T15:50:22.359Z,8.78
2019-03-26T15:51:22.382Z,8.83
2019-03-26T15:52:22.362Z,8.80
2019-03-26T15:53:22.334Z,8.59
2019-03-26T15:54:22.310Z,8.65
2019-03-26T15:55:22.308Z,8.77
2019-03-26T15:56:22.293Z,8.81
2019-03-26T15:57:22.299Z,8.72
2019-03-26T15:58:22.278Z,8.81
2019-03-26T15:59:22.257Z,8.80
2019-03-26T16:00:22.247Z,8.83
2019-03-26T16:01:24.472Z,8.67
2019-03-26T16:02:22.258Z,8.75
2019-03-26T16:03:22.691Z,8.78
2019-03-26T16:04:22.196Z,8.78
2019-03-26T16:05:22.191Z,8.74
2019-03-26T16:06:22.179Z,8.80
2019-03-26T16:07:22.202Z,8.74
2019-03-26T16:08:22.167Z,8.77
2019-03-26T16:09:22.140Z,8.83
2019-03-26T16:10:22.133Z,8.85
2019-03-26T16:11:34.776Z,8.86
2019-03-26T16:12:23.143Z,8.74
2019-03-26T16:13:22.097Z,8.81
2019-03-26T16:14:22.095Z,8.86
2019-03-26T16:15:22.088Z,8.72
2019-03-26T16:16:22.072Z,8.80
2019-03-26T16:17:22.055Z,8.86
2019-03-26T16:18:22.070Z,8.83
2019-03-26T16:19:32.233Z,8.93
2019-03-26T16:20:23.021Z,8.78
2019-03-26T16:21:22.075Z,8.83
2019-03-26T16:22:22.011Z,8.83
2019-03-26T16:23:22.020Z,8.86
2019-03-26T16:24:22.020Z,8.81